sensor_id;sensor_type;location;lat;lon;timestamp;P1;durP1;ratioP1;P2;durP2;ratioP2
70545;SDS011;58098;51.680;5.134;2023-03-29T00:00:12;9.13;;;3.70;;
70545;SDS011;58098;51.680;5.134;2023-03-29T00:02:39;5.60;;;3.63;;
70545;SDS011;58098;51.680;5.134;2023-03-29T00:05:05;5.50;;;3.42;;
70545;SDS011;58098;51.680;5.134;2023-03-29T00:07:32;6.53;;;3.03;;
70545;SDS011;58098;51.680;5.134;2023-03-29T00:09:58;7.77;;;3.63;;
70545;SDS011;58098;51.680;5.134;2023-03-29T00:12:23;6.05;;;3.78;;
70545;SDS011;58098;51.680;5.134;2023-03-29T00:14:49;7.60;;;3.83;;
70545;SDS011;58098;51.680;5.134;2023-03-29T00:17:14;5.90;;;3.67;;
70545;SDS011;58098;51.680;5.134;2023-03-29T00:19:41;9.73;;;3.93;;
70545;SDS011;58098;51.680;5.134;2023-03-29T00:22:08;6.57;;;3.72;;
70545;SDS011;58098;51.680;5.134;2023-03-29T00:24:33;7.33;;;3.70;;
70545;SDS011;58098;51.680;5.134;2023-03-29T00:26:58;11.07;;;4.40;;
70545;SDS011;58098;51.680;5.134;2023-03-29T00:29:25;6.88;;;3.00;;
70545;SDS011;58098;51.680;5.134;2023-03-29T00:31:50;5.70;;;3.57;;
70545;SDS011;58098;51.680;5.134;2023-03-29T00:34:21;7.22;;;3.70;;
70545;SDS011;58098;51.680;5.134;2023-03-29T00:36:47;6.43;;;4.07;;
70545;SDS011;58098;51.680;5.134;2023-03-29T00:39:15;7.67;;;3.50;;
70545;SDS011;58098;51.680;5.134;2023-03-29T00:41:43;7.93;;;3.47;;
70545;SDS011;58098;51.680;5.134;2023-03-29T00:47:12;7.70;;;4.10;;
70545;SDS011;58098;51.680;5.134;2023-03-29T00:49:38;5.00;;;3.80;;
70545;SDS011;58098;51.680;5.134;2023-03-29T00:52:03;7.70;;;3.70;;
70545;SDS011;58098;51.680;5.134;2023-03-29T00:54:29;9.15;;;3.70;;
70545;SDS011;58098;51.680;5.134;2023-03-29T00:56:56;6.05;;;4.18;;
70545;SDS011;58098;51.680;5.134;2023-03-29T00:59:26;4.72;;;3.40;;
70545;SDS011;58098;51.680;5.134;2023-03-29T01:01:56;4.22;;;3.65;;
70545;SDS011;58098;51.680;5.134;2023-03-29T01:04:28;7.40;;;3.47;;
70545;SDS011;58098;51.680;5.134;2023-03-29T01:07:09;7.85;;;3.25;;
70545;SDS011;58098;51.680;5.134;2023-03-29T01:09:51;8.50;;;3.92;;
70545;SDS011;58098;51.680;5.134;2023-03-29T01:12:23;6.93;;;3.50;;
70545;SDS011;58098;51.680;5.134;2023-03-29T01:15:10;8.07;;;3.97;;
70545;SDS011;58098;51.680;5.134;2023-03-29T01:17:38;6.10;;;3.27;;
70545;SDS011;58098;51.680;5.134;2023-03-29T01:20:10;5.65;;;3.30;;
70545;SDS011;58098;51.680;5.134;2023-03-29T01:28:10;5.47;;;3.70;;
70545;SDS011;58098;51.680;5.134;2023-03-29T01:30:43;4.73;;;2.93;;
70545;SDS011;58098;51.680;5.134;2023-03-29T01:33:18;7.45;;;3.53;;
70545;SDS011;58098;51.680;5.134;2023-03-29T01:35:55;6.00;;;3.70;;
70545;SDS011;58098;51.680;5.134;2023-03-29T01:38:27;5.68;;;3.53;;
70545;SDS011;58098;51.680;5.134;2023-03-29T01:40:57;8.90;;;4.13;;
70545;SDS011;58098;51.680;5.134;2023-03-29T01:43:25;9.57;;;3.80;;
70545;SDS011;58098;51.680;5.134;2023-03-29T01:45:58;6.70;;;3.90;;
70545;SDS011;58098;51.680;5.134;2023-03-29T01:48:30;6.93;;;3.80;;
70545;SDS011;58098;51.680;5.134;2023-03-29T01:53:33;6.53;;;3.83;;
70545;SDS011;58098;51.680;5.134;2023-03-29T01:56:04;6.35;;;3.53;;
70545;SDS011;58098;51.680;5.134;2023-03-29T01:58:36;4.90;;;3.50;;
70545;SDS011;58098;51.680;5.134;2023-03-29T02:01:05;6.73;;;3.50;;
70545;SDS011;58098;51.680;5.134;2023-03-29T02:03:34;6.97;;;3.75;;
70545;SDS011;58098;51.680;5.134;2023-03-29T02:06:07;8.23;;;4.53;;
70545;SDS011;58098;51.680;5.134;2023-03-29T02:08:35;5.47;;;3.90;;
70545;SDS011;58098;51.680;5.134;2023-03-29T02:11:02;10.25;;;4.22;;
70545;SDS011;58098;51.680;5.134;2023-03-29T02:13:28;5.60;;;3.70;;
70545;SDS011;58098;51.680;5.134;2023-03-29T02:15:54;6.15;;;3.90;;
70545;SDS011;58098;51.680;5.134;2023-03-29T02:18:20;6.50;;;4.10;;
70545;SDS011;58098;51.680;5.134;2023-03-29T02:20:46;4.97;;;3.60;;
70545;SDS011;58098;51.680;5.134;2023-03-29T02:23:23;7.00;;;3.90;;
70545;SDS011;58098;51.680;5.134;2023-03-29T02:26:09;8.00;;;4.00;;
70545;SDS011;58098;51.680;5.134;2023-03-29T02:28:34;7.70;;;4.13;;
70545;SDS011;58098;51.680;5.134;2023-03-29T02:33:42;8.23;;;3.23;;
70545;SDS011;58098;51.680;5.134;2023-03-29T02:39:00;7.68;;;3.92;;
70545;SDS011;58098;51.680;5.134;2023-03-29T02:41:28;4.72;;;3.47;;
70545;SDS011;58098;51.680;5.134;2023-03-29T02:43:54;7.60;;;3.88;;
70545;SDS011;58098;51.680;5.134;2023-03-29T02:46:22;10.93;;;3.60;;
70545;SDS011;58098;51.680;5.134;2023-03-29T02:48:48;6.10;;;3.40;;
70545;SDS011;58098;51.680;5.134;2023-03-29T02:51:18;5.40;;;3.88;;
70545;SDS011;58098;51.680;5.134;2023-03-29T02:53:55;5.88;;;3.50;;
70545;SDS011;58098;51.680;5.134;2023-03-29T02:56:25;4.30;;;3.33;;
70545;SDS011;58098;51.680;5.134;2023-03-29T02:58:51;6.67;;;3.37;;
70545;SDS011;58098;51.680;5.134;2023-03-29T03:01:16;9.13;;;3.73;;
70545;SDS011;58098;51.680;5.134;2023-03-29T03:03:42;7.40;;;3.35;;
70545;SDS011;58098;51.680;5.134;2023-03-29T03:06:08;5.22;;;3.78;;
70545;SDS011;58098;51.680;5.134;2023-03-29T03:08:34;6.43;;;3.47;;
70545;SDS011;58098;51.680;5.134;2023-03-29T03:10:59;6.07;;;3.10;;
70545;SDS011;58098;51.680;5.134;2023-03-29T03:13:24;6.40;;;3.53;;
70545;SDS011;58098;51.680;5.134;2023-03-29T03:15:50;9.33;;;3.67;;
70545;SDS011;58098;51.680;5.134;2023-03-29T03:18:15;8.40;;;3.17;;
70545;SDS011;58098;51.680;5.134;2023-03-29T03:20:41;7.03;;;3.37;;
70545;SDS011;58098;51.680;5.134;2023-03-29T03:23:06;7.10;;;3.72;;
70545;SDS011;58098;51.680;5.134;2023-03-29T03:25:33;7.03;;;3.60;;
70545;SDS011;58098;51.680;5.134;2023-03-29T03:27:59;6.60;;;3.33;;
70545;SDS011;58098;51.680;5.134;2023-03-29T03:30:25;9.97;;;4.23;;
70545;SDS011;58098;51.680;5.134;2023-03-29T03:32:51;8.95;;;4.05;;
70545;SDS011;58098;51.680;5.134;2023-03-29T03:35:18;7.35;;;3.53;;
70545;SDS011;58098;51.680;5.134;2023-03-29T03:37:44;6.80;;;3.37;;
70545;SDS011;58098;51.680;5.134;2023-03-29T03:40:09;8.40;;;3.67;;
70545;SDS011;58098;51.680;5.134;2023-03-29T03:42:38;5.97;;;3.40;;
70545;SDS011;58098;51.680;5.134;2023-03-29T03:45:05;6.18;;;3.15;;
70545;SDS011;58098;51.680;5.134;2023-03-29T03:47:32;7.13;;;3.30;;
70545;SDS011;58098;51.680;5.134;2023-03-29T03:49:58;9.73;;;3.97;;
70545;SDS011;58098;51.680;5.134;2023-03-29T03:52:23;5.93;;;3.80;;
70545;SDS011;58098;51.680;5.134;2023-03-29T03:54:49;4.87;;;3.60;;
70545;SDS011;58098;51.680;5.134;2023-03-29T03:57:15;7.10;;;3.70;;
70545;SDS011;58098;51.680;5.134;2023-03-29T03:59:40;7.90;;;3.20;;
70545;SDS011;58098;51.680;5.134;2023-03-29T04:02:06;5.47;;;3.60;;
70545;SDS011;58098;51.680;5.134;2023-03-29T04:04:31;7.13;;;3.42;;
70545;SDS011;58098;51.680;5.134;2023-03-29T04:06:57;8.00;;;3.97;;
70545;SDS011;58098;51.680;5.134;2023-03-29T04:09:30;5.63;;;3.50;;
70545;SDS011;58098;51.680;5.134;2023-03-29T04:11:57;8.35;;;4.13;;
70545;SDS011;58098;51.680;5.134;2023-03-29T04:14:23;7.03;;;3.60;;
70545;SDS011;58098;51.680;5.134;2023-03-29T04:16:50;8.10;;;3.42;;
70545;SDS011;58098;51.680;5.134;2023-03-29T04:19:16;5.88;;;3.33;;
70545;SDS011;58098;51.680;5.134;2023-03-29T04:21:42;5.87;;;4.00;;
70545;SDS011;58098;51.680;5.134;2023-03-29T04:24:09;7.03;;;4.38;;
70545;SDS011;58098;51.680;5.134;2023-03-29T04:26:35;5.30;;;3.65;;
70545;SDS011;58098;51.680;5.134;2023-03-29T04:29:01;8.10;;;3.60;;
70545;SDS011;58098;51.680;5.134;2023-03-29T04:31:26;8.17;;;4.10;;
70545;SDS011;58098;51.680;5.134;2023-03-29T04:33:51;7.77;;;3.87;;
70545;SDS011;58098;51.680;5.134;2023-03-29T04:36:17;5.53;;;2.97;;
70545;SDS011;58098;51.680;5.134;2023-03-29T04:38:42;7.93;;;3.73;;
70545;SDS011;58098;51.680;5.134;2023-03-29T04:41:07;8.03;;;3.97;;
70545;SDS011;58098;51.680;5.134;2023-03-29T04:43:33;11.82;;;4.18;;
70545;SDS011;58098;51.680;5.134;2023-03-29T04:45:59;10.52;;;4.22;;
70545;SDS011;58098;51.680;5.134;2023-03-29T04:48:25;5.67;;;3.43;;
70545;SDS011;58098;51.680;5.134;2023-03-29T04:50:50;9.40;;;4.20;;
70545;SDS011;58098;51.680;5.134;2023-03-29T04:53:18;8.10;;;4.05;;
70545;SDS011;58098;51.680;5.134;2023-03-29T04:55:45;6.73;;;3.83;;
70545;SDS011;58098;51.680;5.134;2023-03-29T04:58:10;7.20;;;4.45;;
70545;SDS011;58098;51.680;5.134;2023-03-29T05:00:36;8.07;;;4.33;;
70545;SDS011;58098;51.680;5.134;2023-03-29T05:03:01;9.82;;;3.90;;
70545;SDS011;58098;51.680;5.134;2023-03-29T05:05:28;7.47;;;4.28;;
70545;SDS011;58098;51.680;5.134;2023-03-29T05:07:53;8.87;;;3.60;;
70545;SDS011;58098;51.680;5.134;2023-03-29T05:10:19;7.90;;;4.30;;
70545;SDS011;58098;51.680;5.134;2023-03-29T05:12:44;6.67;;;4.03;;
70545;SDS011;58098;51.680;5.134;2023-03-29T05:15:10;7.80;;;4.15;;
70545;SDS011;58098;51.680;5.134;2023-03-29T05:17:36;7.93;;;4.53;;
70545;SDS011;58098;51.680;5.134;2023-03-29T05:20:01;8.50;;;4.00;;
70545;SDS011;58098;51.680;5.134;2023-03-29T05:22:33;8.02;;;4.50;;
70545;SDS011;58098;51.680;5.134;2023-03-29T05:25:01;10.73;;;4.40;;
70545;SDS011;58098;51.680;5.134;2023-03-29T05:27:26;7.80;;;4.00;;
70545;SDS011;58098;51.680;5.134;2023-03-29T05:29:52;8.35;;;3.90;;
70545;SDS011;58098;51.680;5.134;2023-03-29T05:32:17;8.67;;;4.27;;
70545;SDS011;58098;51.680;5.134;2023-03-29T05:34:43;10.15;;;3.80;;
70545;SDS011;58098;51.680;5.134;2023-03-29T05:37:09;6.27;;;4.00;;
70545;SDS011;58098;51.680;5.134;2023-03-29T05:39:34;7.90;;;4.90;;
70545;SDS011;58098;51.680;5.134;2023-03-29T05:42:01;7.40;;;4.60;;
70545;SDS011;58098;51.680;5.134;2023-03-29T05:44:27;8.20;;;3.97;;
70545;SDS011;58098;51.680;5.134;2023-03-29T05:46:52;7.90;;;4.30;;
70545;SDS011;58098;51.680;5.134;2023-03-29T05:49:17;9.20;;;3.90;;
70545;SDS011;58098;51.680;5.134;2023-03-29T05:51:43;9.37;;;3.90;;
70545;SDS011;58098;51.680;5.134;2023-03-29T05:54:09;11.00;;;4.85;;
70545;SDS011;58098;51.680;5.134;2023-03-29T05:56:35;10.27;;;4.80;;
70545;SDS011;58098;51.680;5.134;2023-03-29T05:59:01;7.85;;;4.60;;
70545;SDS011;58098;51.680;5.134;2023-03-29T06:01:26;8.03;;;4.43;;
70545;SDS011;58098;51.680;5.134;2023-03-29T06:03:52;8.85;;;5.20;;
70545;SDS011;58098;51.680;5.134;2023-03-29T06:06:18;9.77;;;4.70;;
70545;SDS011;58098;51.680;5.134;2023-03-29T06:08:45;7.75;;;4.45;;
70545;SDS011;58098;51.680;5.134;2023-03-29T06:11:11;6.53;;;4.47;;
70545;SDS011;58098;51.680;5.134;2023-03-29T06:13:37;9.65;;;4.32;;
70545;SDS011;58098;51.680;5.134;2023-03-29T06:16:03;10.03;;;5.00;;
70545;SDS011;58098;51.680;5.134;2023-03-29T06:18:32;6.85;;;4.47;;
70545;SDS011;58098;51.680;5.134;2023-03-29T06:20:58;7.40;;;4.57;;
70545;SDS011;58098;51.680;5.134;2023-03-29T06:23:25;6.97;;;4.70;;
70545;SDS011;58098;51.680;5.134;2023-03-29T06:25:51;7.70;;;4.60;;
70545;SDS011;58098;51.680;5.134;2023-03-29T06:28:16;9.60;;;5.23;;
70545;SDS011;58098;51.680;5.134;2023-03-29T06:30:42;9.15;;;4.90;;
70545;SDS011;58098;51.680;5.134;2023-03-29T06:33:09;10.80;;;4.70;;
70545;SDS011;58098;51.680;5.134;2023-03-29T06:35:35;8.82;;;4.50;;
70545;SDS011;58098;51.680;5.134;2023-03-29T06:38:04;7.75;;;4.40;;
70545;SDS011;58098;51.680;5.134;2023-03-29T06:40:29;10.77;;;5.27;;
70545;SDS011;58098;51.680;5.134;2023-03-29T06:42:55;8.75;;;4.78;;
70545;SDS011;58098;51.680;5.134;2023-03-29T06:45:28;9.30;;;4.83;;
70545;SDS011;58098;51.680;5.134;2023-03-29T06:47:56;11.38;;;5.03;;
70545;SDS011;58098;51.680;5.134;2023-03-29T06:50:22;8.23;;;4.40;;
70545;SDS011;58098;51.680;5.134;2023-03-29T06:52:47;15.77;;;4.45;;
70545;SDS011;58098;51.680;5.134;2023-03-29T06:55:13;7.90;;;4.63;;
70545;SDS011;58098;51.680;5.134;2023-03-29T06:57:40;8.23;;;4.82;;
70545;SDS011;58098;51.680;5.134;2023-03-29T07:00:05;12.63;;;5.10;;
70545;SDS011;58098;51.680;5.134;2023-03-29T07:02:43;7.97;;;4.70;;
70545;SDS011;58098;51.680;5.134;2023-03-29T07:05:13;9.40;;;4.50;;
70545;SDS011;58098;51.680;5.134;2023-03-29T07:07:40;12.00;;;5.38;;
70545;SDS011;58098;51.680;5.134;2023-03-29T07:10:36;9.25;;;4.72;;
70545;SDS011;58098;51.680;5.134;2023-03-29T07:13:04;9.45;;;4.97;;
70545;SDS011;58098;51.680;5.134;2023-03-29T07:15:31;7.47;;;4.60;;
70545;SDS011;58098;51.680;5.134;2023-03-29T07:17:57;10.10;;;5.00;;
70545;SDS011;58098;51.680;5.134;2023-03-29T07:20:23;11.07;;;5.50;;
70545;SDS011;58098;51.680;5.134;2023-03-29T07:22:51;10.93;;;5.63;;
70545;SDS011;58098;51.680;5.134;2023-03-29T07:25:17;8.90;;;5.30;;
70545;SDS011;58098;51.680;5.134;2023-03-29T07:27:43;9.48;;;5.55;;
70545;SDS011;58098;51.680;5.134;2023-03-29T07:30:11;9.48;;;4.80;;
70545;SDS011;58098;51.680;5.134;2023-03-29T07:32:40;8.30;;;4.88;;
70545;SDS011;58098;51.680;5.134;2023-03-29T07:35:08;11.53;;;4.80;;
70545;SDS011;58098;51.680;5.134;2023-03-29T07:37:35;11.15;;;5.22;;
70545;SDS011;58098;51.680;5.134;2023-03-29T07:40:04;14.18;;;5.55;;
70545;SDS011;58098;51.680;5.134;2023-03-29T07:42:40;11.95;;;5.47;;
70545;SDS011;58098;51.680;5.134;2023-03-29T07:45:06;12.88;;;5.80;;
70545;SDS011;58098;51.680;5.134;2023-03-29T07:47:32;6.67;;;4.73;;
70545;SDS011;58098;51.680;5.134;2023-03-29T07:49:59;10.10;;;5.63;;
70545;SDS011;58098;51.680;5.134;2023-03-29T07:52:24;7.35;;;5.35;;
70545;SDS011;58098;51.680;5.134;2023-03-29T07:54:52;8.93;;;6.00;;
70545;SDS011;58098;51.680;5.134;2023-03-29T07:57:17;14.68;;;6.72;;
70545;SDS011;58098;51.680;5.134;2023-03-29T07:59:43;11.13;;;6.40;;
70545;SDS011;58098;51.680;5.134;2023-03-29T08:02:09;12.17;;;5.60;;
70545;SDS011;58098;51.680;5.134;2023-03-29T08:04:34;10.35;;;5.68;;
70545;SDS011;58098;51.680;5.134;2023-03-29T08:07:00;9.43;;;5.57;;
70545;SDS011;58098;51.680;5.134;2023-03-29T08:09:25;11.90;;;6.00;;
70545;SDS011;58098;51.680;5.134;2023-03-29T08:11:51;9.07;;;5.30;;
70545;SDS011;58098;51.680;5.134;2023-03-29T08:14:17;12.68;;;6.03;;
70545;SDS011;58098;51.680;5.134;2023-03-29T08:16:43;13.27;;;6.00;;
70545;SDS011;58098;51.680;5.134;2023-03-29T08:19:08;9.87;;;5.47;;
70545;SDS011;58098;51.680;5.134;2023-03-29T08:21:33;11.15;;;5.75;;
70545;SDS011;58098;51.680;5.134;2023-03-29T08:23:59;11.40;;;5.57;;
70545;SDS011;58098;51.680;5.134;2023-03-29T08:26:25;14.57;;;6.00;;
70545;SDS011;58098;51.680;5.134;2023-03-29T08:28:50;8.40;;;5.30;;
70545;SDS011;58098;51.680;5.134;2023-03-29T08:31:16;8.80;;;5.50;;
70545;SDS011;58098;51.680;5.134;2023-03-29T08:33:41;9.00;;;5.93;;
70545;SDS011;58098;51.680;5.134;2023-03-29T08:36:08;10.60;;;5.32;;
70545;SDS011;58098;51.680;5.134;2023-03-29T08:38:34;11.30;;;5.75;;
70545;SDS011;58098;51.680;5.134;2023-03-29T08:40:59;9.10;;;5.87;;
70545;SDS011;58098;51.680;5.134;2023-03-29T08:46:26;10.18;;;6.13;;
70545;SDS011;58098;51.680;5.134;2023-03-29T08:49:00;14.63;;;6.38;;
70545;SDS011;58098;51.680;5.134;2023-03-29T08:51:29;11.07;;;6.57;;
70545;SDS011;58098;51.680;5.134;2023-03-29T08:54:06;13.13;;;7.18;;
70545;SDS011;58098;51.680;5.134;2023-03-29T08:56:37;13.93;;;7.70;;
70545;SDS011;58098;51.680;5.134;2023-03-29T08:59:13;10.52;;;6.13;;
70545;SDS011;58098;51.680;5.134;2023-03-29T09:01:46;11.35;;;6.57;;
70545;SDS011;58098;51.680;5.134;2023-03-29T09:04:17;10.68;;;6.57;;
70545;SDS011;58098;51.680;5.134;2023-03-29T09:06:47;13.27;;;6.45;;
70545;SDS011;58098;51.680;5.134;2023-03-29T09:09:20;12.03;;;6.33;;
70545;SDS011;58098;51.680;5.134;2023-03-29T09:11:59;11.23;;;6.63;;
70545;SDS011;58098;51.680;5.134;2023-03-29T09:23:54;13.75;;;8.43;;
70545;SDS011;58098;51.680;5.134;2023-03-29T09:26:00;14.77;;;8.48;;
70545;SDS011;58098;51.680;5.134;2023-03-29T09:28:45;14.60;;;8.40;;
70545;SDS011;58098;51.680;5.134;2023-03-29T09:31:21;16.80;;;9.32;;
70545;SDS011;58098;51.680;5.134;2023-03-29T09:33:55;21.03;;;9.17;;
70545;SDS011;58098;51.680;5.134;2023-03-29T09:38:49;15.43;;;9.18;;
70545;SDS011;58098;51.680;5.134;2023-03-29T09:43:55;16.55;;;8.88;;
70545;SDS011;58098;51.680;5.134;2023-03-29T09:46:40;11.90;;;8.40;;
70545;SDS011;58098;51.680;5.134;2023-03-29T09:49:11;13.68;;;8.25;;
70545;SDS011;58098;51.680;5.134;2023-03-29T09:51:41;18.98;;;8.80;;
70545;SDS011;58098;51.680;5.134;2023-03-29T09:54:11;14.65;;;9.82;;
70545;SDS011;58098;51.680;5.134;2023-03-29T09:56:37;15.33;;;9.60;;
70545;SDS011;58098;51.680;5.134;2023-03-29T09:59:03;15.18;;;9.88;;
70545;SDS011;58098;51.680;5.134;2023-03-29T10:01:34;18.33;;;10.17;;
70545;SDS011;58098;51.680;5.134;2023-03-29T10:04:04;14.48;;;9.52;;
70545;SDS011;58098;51.680;5.134;2023-03-29T10:06:31;16.85;;;10.82;;
70545;SDS011;58098;51.680;5.134;2023-03-29T10:08:58;14.38;;;9.63;;
70545;SDS011;58098;51.680;5.134;2023-03-29T10:11:31;16.77;;;9.77;;
70545;SDS011;58098;51.680;5.134;2023-03-29T10:14:02;15.15;;;9.70;;
70545;SDS011;58098;51.680;5.134;2023-03-29T10:16:32;15.60;;;10.43;;
70545;SDS011;58098;51.680;5.134;2023-03-29T10:19:25;19.40;;;10.68;;
70545;SDS011;58098;51.680;5.134;2023-03-29T10:21:50;18.52;;;12.38;;
70545;SDS011;58098;51.680;5.134;2023-03-29T10:24:20;18.37;;;11.47;;
70545;SDS011;58098;51.680;5.134;2023-03-29T10:26:47;17.77;;;11.35;;
70545;SDS011;58098;51.680;5.134;2023-03-29T10:29:19;17.00;;;10.02;;
70545;SDS011;58098;51.680;5.134;2023-03-29T10:31:46;17.20;;;11.38;;
70545;SDS011;58098;51.680;5.134;2023-03-29T10:34:12;24.13;;;12.30;;
70545;SDS011;58098;51.680;5.134;2023-03-29T10:36:40;17.48;;;12.50;;
70545;SDS011;58098;51.680;5.134;2023-03-29T10:39:11;17.67;;;11.57;;
70545;SDS011;58098;51.680;5.134;2023-03-29T10:41:39;20.65;;;12.45;;
70545;SDS011;58098;51.680;5.134;2023-03-29T10:44:05;21.90;;;12.53;;
70545;SDS011;58098;51.680;5.134;2023-03-29T10:46:31;18.27;;;12.13;;
70545;SDS011;58098;51.680;5.134;2023-03-29T10:49:05;19.40;;;11.90;;
70545;SDS011;58098;51.680;5.134;2023-03-29T10:51:45;19.00;;;11.35;;
70545;SDS011;58098;51.680;5.134;2023-03-29T10:54:13;16.70;;;11.40;;
70545;SDS011;58098;51.680;5.134;2023-03-29T10:56:42;18.13;;;10.57;;
70545;SDS011;58098;51.680;5.134;2023-03-29T11:10:10;15.93;;;10.17;;
70545;SDS011;58098;51.680;5.134;2023-03-29T11:12:47;16.02;;;9.23;;
70545;SDS011;58098;51.680;5.134;2023-03-29T11:27:21;12.77;;;8.40;;
70545;SDS011;58098;51.680;5.134;2023-03-29T11:29:59;14.57;;;9.35;;
70545;SDS011;58098;51.680;5.134;2023-03-29T11:43:18;15.65;;;9.70;;
70545;SDS011;58098;51.680;5.134;2023-03-29T11:45:50;13.38;;;9.15;;
70545;SDS011;58098;51.680;5.134;2023-03-29T11:48:23;16.55;;;9.52;;
70545;SDS011;58098;51.680;5.134;2023-03-29T11:50:55;17.57;;;8.77;;
70545;SDS011;58098;51.680;5.134;2023-03-29T11:53:36;13.77;;;8.27;;
70545;SDS011;58098;51.680;5.134;2023-03-29T11:56:13;15.32;;;9.32;;
70545;SDS011;58098;51.680;5.134;2023-03-29T11:58:46;14.60;;;8.98;;
70545;SDS011;58098;51.680;5.134;2023-03-29T12:01:19;13.70;;;8.35;;
70545;SDS011;58098;51.680;5.134;2023-03-29T12:03:55;14.13;;;8.23;;
70545;SDS011;58098;51.680;5.134;2023-03-29T12:06:27;13.35;;;8.45;;
70545;SDS011;58098;51.680;5.134;2023-03-29T12:12:06;9.95;;;7.28;;
70545;SDS011;58098;51.680;5.134;2023-03-29T12:17:23;12.27;;;8.10;;
70545;SDS011;58098;51.680;5.134;2023-03-29T12:22:44;15.20;;;7.25;;
70545;SDS011;58098;51.680;5.134;2023-03-29T12:25:11;13.23;;;6.57;;
70545;SDS011;58098;51.680;5.134;2023-03-29T12:35:23;14.20;;;7.73;;
70545;SDS011;58098;51.680;5.134;2023-03-29T12:38:09;11.05;;;7.20;;
70545;SDS011;58098;51.680;5.134;2023-03-29T12:40:43;12.65;;;6.90;;
70545;SDS011;58098;51.680;5.134;2023-03-29T12:43:14;10.23;;;6.63;;
70545;SDS011;58098;51.680;5.134;2023-03-29T12:46:04;8.77;;;5.95;;
70545;SDS011;58098;51.680;5.134;2023-03-29T12:48:32;9.37;;;6.83;;
70545;SDS011;58098;51.680;5.134;2023-03-29T12:51:02;12.20;;;7.00;;
70545;SDS011;58098;51.680;5.134;2023-03-29T13:06:04;8.40;;;6.10;;
70545;SDS011;58098;51.680;5.134;2023-03-29T13:08:35;8.93;;;6.13;;
70545;SDS011;58098;51.680;5.134;2023-03-29T13:11:26;7.72;;;5.63;;
70545;SDS011;58098;51.680;5.134;2023-03-29T13:13:59;10.70;;;5.85;;
70545;SDS011;58098;51.680;5.134;2023-03-29T13:16:35;8.77;;;6.67;;
70545;SDS011;58098;51.680;5.134;2023-03-29T13:24:36;11.45;;;6.00;;
70545;SDS011;58098;51.680;5.134;2023-03-29T13:27:15;11.70;;;6.85;;
70545;SDS011;58098;51.680;5.134;2023-03-29T13:32:29;9.90;;;6.57;;
70545;SDS011;58098;51.680;5.134;2023-03-29T13:37:54;8.85;;;6.22;;
70545;SDS011;58098;51.680;5.134;2023-03-29T13:43:09;11.73;;;6.53;;
70545;SDS011;58098;51.680;5.134;2023-03-29T13:45:49;8.05;;;5.85;;
70545;SDS011;58098;51.680;5.134;2023-03-29T13:48:31;8.30;;;5.40;;
70545;SDS011;58098;51.680;5.134;2023-03-29T13:53:44;10.13;;;5.50;;
70545;SDS011;58098;51.680;5.134;2023-03-29T13:56:20;8.20;;;5.93;;
70545;SDS011;58098;51.680;5.134;2023-03-29T13:58:50;9.35;;;5.65;;
70545;SDS011;58098;51.680;5.134;2023-03-29T14:03:55;8.00;;;4.90;;
70545;SDS011;58098;51.680;5.134;2023-03-29T14:06:25;9.20;;;5.50;;
70545;SDS011;58098;51.680;5.134;2023-03-29T14:08:55;8.98;;;4.75;;
70545;SDS011;58098;51.680;5.134;2023-03-29T14:11:21;7.93;;;4.97;;
70545;SDS011;58098;51.680;5.134;2023-03-29T14:13:52;9.77;;;5.63;;
70545;SDS011;58098;51.680;5.134;2023-03-29T14:16:19;8.10;;;4.97;;
70545;SDS011;58098;51.680;5.134;2023-03-29T14:18:45;6.57;;;4.72;;
70545;SDS011;58098;51.680;5.134;2023-03-29T14:21:15;5.87;;;4.60;;
70545;SDS011;58098;51.680;5.134;2023-03-29T14:23:42;7.13;;;4.28;;
70545;SDS011;58098;51.680;5.134;2023-03-29T14:26:17;7.30;;;4.57;;
70545;SDS011;58098;51.680;5.134;2023-03-29T14:28:45;5.82;;;4.18;;
70545;SDS011;58098;51.680;5.134;2023-03-29T14:31:16;6.18;;;3.97;;
70545;SDS011;58098;51.680;5.134;2023-03-29T14:33:42;5.90;;;4.30;;
70545;SDS011;58098;51.680;5.134;2023-03-29T14:36:09;4.80;;;4.03;;
70545;SDS011;58098;51.680;5.134;2023-03-29T14:38:39;8.95;;;3.72;;
70545;SDS011;58098;51.680;5.134;2023-03-29T14:41:05;7.68;;;4.00;;
70545;SDS011;58098;51.680;5.134;2023-03-29T14:43:31;4.30;;;3.90;;
70545;SDS011;58098;51.680;5.134;2023-03-29T14:45:57;6.40;;;3.73;;
70545;SDS011;58098;51.680;5.134;2023-03-29T14:48:24;6.60;;;4.10;;
70545;SDS011;58098;51.680;5.134;2023-03-29T14:50:50;5.45;;;3.40;;
70545;SDS011;58098;51.680;5.134;2023-03-29T14:53:20;4.80;;;3.80;;
70545;SDS011;58098;51.680;5.134;2023-03-29T14:55:47;5.35;;;3.60;;
70545;SDS011;58098;51.680;5.134;2023-03-29T14:58:20;5.57;;;3.50;;
70545;SDS011;58098;51.680;5.134;2023-03-29T15:00:50;5.72;;;3.40;;
70545;SDS011;58098;51.680;5.134;2023-03-29T15:03:16;6.75;;;3.20;;
70545;SDS011;58098;51.680;5.134;2023-03-29T15:05:46;5.30;;;3.07;;
70545;SDS011;58098;51.680;5.134;2023-03-29T15:08:28;4.15;;;3.00;;
70545;SDS011;58098;51.680;5.134;2023-03-29T15:10:58;5.45;;;3.03;;
70545;SDS011;58098;51.680;5.134;2023-03-29T15:13:23;5.35;;;3.10;;
70545;SDS011;58098;51.680;5.134;2023-03-29T15:15:55;4.27;;;2.60;;
70545;SDS011;58098;51.680;5.134;2023-03-29T15:18:30;4.85;;;2.60;;
70545;SDS011;58098;51.680;5.134;2023-03-29T15:20:59;5.70;;;2.90;;
70545;SDS011;58098;51.680;5.134;2023-03-29T15:23:25;7.13;;;3.22;;
70545;SDS011;58098;51.680;5.134;2023-03-29T15:26:21;4.20;;;2.67;;
70545;SDS011;58098;51.680;5.134;2023-03-29T15:29:14;5.60;;;3.50;;
70545;SDS011;58098;51.680;5.134;2023-03-29T15:31:52;5.75;;;3.05;;
70545;SDS011;58098;51.680;5.134;2023-03-29T15:34:23;5.35;;;3.00;;
70545;SDS011;58098;51.680;5.134;2023-03-29T15:36:53;5.40;;;2.90;;
70545;SDS011;58098;51.680;5.134;2023-03-29T15:39:26;5.43;;;3.10;;
70545;SDS011;58098;51.680;5.134;2023-03-29T15:41:54;4.40;;;3.07;;
70545;SDS011;58098;51.680;5.134;2023-03-29T15:44:22;4.40;;;2.90;;
70545;SDS011;58098;51.680;5.134;2023-03-29T15:46:51;6.07;;;3.05;;
70545;SDS011;58098;51.680;5.134;2023-03-29T15:49:19;6.55;;;3.67;;
70545;SDS011;58098;51.680;5.134;2023-03-29T15:51:44;6.07;;;3.73;;
70545;SDS011;58098;51.680;5.134;2023-03-29T15:54:10;9.20;;;3.47;;
70545;SDS011;58098;51.680;5.134;2023-03-29T15:56:37;6.50;;;3.60;;
70545;SDS011;58098;51.680;5.134;2023-03-29T15:59:09;6.07;;;3.13;;
70545;SDS011;58098;51.680;5.134;2023-03-29T16:01:36;6.63;;;3.35;;
70545;SDS011;58098;51.680;5.134;2023-03-29T16:04:03;5.38;;;3.40;;
70545;SDS011;58098;51.680;5.134;2023-03-29T16:06:31;7.93;;;3.58;;
70545;SDS011;58098;51.680;5.134;2023-03-29T16:08:57;4.90;;;3.58;;
70545;SDS011;58098;51.680;5.134;2023-03-29T16:11:23;8.20;;;3.10;;
70545;SDS011;58098;51.680;5.134;2023-03-29T16:13:49;7.60;;;3.70;;
70545;SDS011;58098;51.680;5.134;2023-03-29T16:16:15;5.63;;;3.20;;
70545;SDS011;58098;51.680;5.134;2023-03-29T16:18:40;5.13;;;3.40;;
70545;SDS011;58098;51.680;5.134;2023-03-29T16:21:08;8.87;;;4.00;;
70545;SDS011;58098;51.680;5.134;2023-03-29T16:23:36;4.13;;;2.90;;
70545;SDS011;58098;51.680;5.134;2023-03-29T16:26:02;5.17;;;2.90;;
70545;SDS011;58098;51.680;5.134;2023-03-29T16:28:28;9.90;;;3.40;;
70545;SDS011;58098;51.680;5.134;2023-03-29T16:30:53;6.07;;;3.23;;
70545;SDS011;58098;51.680;5.134;2023-03-29T16:33:19;4.95;;;3.20;;
70545;SDS011;58098;51.680;5.134;2023-03-29T16:35:44;6.13;;;3.07;;
70545;SDS011;58098;51.680;5.134;2023-03-29T16:38:09;4.97;;;2.97;;
70545;SDS011;58098;51.680;5.134;2023-03-29T16:40:35;5.33;;;3.23;;
70545;SDS011;58098;51.680;5.134;2023-03-29T16:43:00;5.70;;;3.60;;
70545;SDS011;58098;51.680;5.134;2023-03-29T16:45:26;6.43;;;3.43;;
70545;SDS011;58098;51.680;5.134;2023-03-29T16:47:52;4.07;;;3.22;;